sensor_id;sensor_type;location;lat;lon;timestamp;P1;durP1;ratioP1;P2;durP2;ratioP2
14472;SDS011;7322;50.872;4.386;2023-07-30T00:02:05;4.55;;;2.63;;
14472;SDS011;7322;50.872;4.386;2023-07-30T00:04:39;5.60;;;2.90;;
14472;SDS011;7322;50.872;4.386;2023-07-30T00:07:06;3.85;;;2.60;;
14472;SDS011;7322;50.872;4.386;2023-07-30T00:09:34;3.72;;;2.42;;
14472;SDS011;7322;50.872;4.386;2023-07-30T00:12:07;4.40;;;2.55;;
14472;SDS011;7322;50.872;4.386;2023-07-30T00:14:37;4.13;;;2.40;;
14472;SDS011;7322;50.872;4.386;2023-07-30T00:17:04;4.43;;;2.92;;
14472;SDS011;7322;50.872;4.386;2023-07-30T00:19:39;3.97;;;2.50;;
14472;SDS011;7322;50.872;4.386;2023-07-30T00:28:06;6.38;;;2.75;;
14472;SDS011;7322;50.872;4.386;2023-07-30T00:30:35;4.53;;;2.40;;
14472;SDS011;7322;50.872;4.386;2023-07-30T00:33:09;4.57;;;2.35;;
14472;SDS011;7322;50.872;4.386;2023-07-30T00:35:38;4.53;;;2.50;;
14472;SDS011;7322;50.872;4.386;2023-07-30T00:38:05;3.60;;;2.17;;
14472;SDS011;7322;50.872;4.386;2023-07-30T00:40:40;3.38;;;2.25;;
14472;SDS011;7322;50.872;4.386;2023-07-30T00:43:07;4.35;;;2.40;;
14472;SDS011;7322;50.872;4.386;2023-07-30T00:45:40;5.78;;;2.53;;
14472;SDS011;7322;50.872;4.386;2023-07-30T00:48:10;6.05;;;2.58;;
14472;SDS011;7322;50.872;4.386;2023-07-30T00:50:41;5.82;;;2.88;;
14472;SDS011;7322;50.872;4.386;2023-07-30T00:53:09;5.43;;;2.40;;
14472;SDS011;7322;50.872;4.386;2023-07-30T00:55:50;6.82;;;2.40;;
14472;SDS011;7322;50.872;4.386;2023-07-30T00:58:19;4.85;;;2.15;;
14472;SDS011;7322;50.872;4.386;2023-07-30T01:03:35;6.78;;;2.70;;
14472;SDS011;7322;50.872;4.386;2023-07-30T01:06:11;5.05;;;2.45;;
14472;SDS011;7322;50.872;4.386;2023-07-30T01:11:20;4.55;;;2.40;;
14472;SDS011;7322;50.872;4.386;2023-07-30T01:13:57;4.43;;;2.47;;
14472;SDS011;7322;50.872;4.386;2023-07-30T01:16:25;5.63;;;2.25;;
14472;SDS011;7322;50.872;4.386;2023-07-30T01:18:58;3.40;;;2.30;;
14472;SDS011;7322;50.872;4.386;2023-07-30T01:24:17;5.53;;;2.33;;
14472;SDS011;7322;50.872;4.386;2023-07-30T01:26:46;4.72;;;2.22;;
14472;SDS011;7322;50.872;4.386;2023-07-30T01:29:24;5.07;;;2.47;;
14472;SDS011;7322;50.872;4.386;2023-07-30T01:32:04;6.70;;;2.70;;
14472;SDS011;7322;50.872;4.386;2023-07-30T01:34:34;3.97;;;2.45;;
14472;SDS011;7322;50.872;4.386;2023-07-30T01:37:07;7.22;;;2.47;;
14472;SDS011;7322;50.872;4.386;2023-07-30T01:39:38;5.10;;;2.60;;
14472;SDS011;7322;50.872;4.386;2023-07-30T01:42:06;3.67;;;2.10;;
14472;SDS011;7322;50.872;4.386;2023-07-30T01:44:39;4.60;;;2.22;;
14472;SDS011;7322;50.872;4.386;2023-07-30T01:47:13;3.80;;;1.95;;
14472;SDS011;7322;50.872;4.386;2023-07-30T01:49:41;3.72;;;1.85;;
14472;SDS011;7322;50.872;4.386;2023-07-30T01:52:09;3.67;;;2.00;;
14472;SDS011;7322;50.872;4.386;2023-07-30T01:54:40;5.47;;;2.58;;
14472;SDS011;7322;50.872;4.386;2023-07-30T01:57:09;5.70;;;2.70;;
14472;SDS011;7322;50.872;4.386;2023-07-30T01:59:46;5.10;;;2.15;;
14472;SDS011;7322;50.872;4.386;2023-07-30T02:02:13;6.20;;;2.42;;
14472;SDS011;7322;50.872;4.386;2023-07-30T02:04:46;6.10;;;2.40;;
14472;SDS011;7322;50.872;4.386;2023-07-30T02:07:16;5.13;;;2.22;;
14472;SDS011;7322;50.872;4.386;2023-07-30T02:13:09;7.10;;;2.30;;
14472;SDS011;7322;50.872;4.386;2023-07-30T02:15:39;4.78;;;2.25;;
14472;SDS011;7322;50.872;4.386;2023-07-30T02:18:09;7.50;;;2.78;;
14472;SDS011;7322;50.872;4.386;2023-07-30T02:20:38;7.43;;;2.38;;
14472;SDS011;7322;50.872;4.386;2023-07-30T02:23:13;6.43;;;2.50;;
14472;SDS011;7322;50.872;4.386;2023-07-30T02:25:41;7.13;;;2.33;;
14472;SDS011;7322;50.872;4.386;2023-07-30T02:28:09;8.13;;;2.60;;
14472;SDS011;7322;50.872;4.386;2023-07-30T02:30:42;6.85;;;2.55;;
14472;SDS011;7322;50.872;4.386;2023-07-30T02:33:21;5.65;;;2.40;;
14472;SDS011;7322;50.872;4.386;2023-07-30T02:35:48;7.15;;;2.60;;
14472;SDS011;7322;50.872;4.386;2023-07-30T02:38:19;5.97;;;2.60;;
14472;SDS011;7322;50.872;4.386;2023-07-30T02:40:45;8.07;;;2.65;;
14472;SDS011;7322;50.872;4.386;2023-07-30T02:43:12;7.05;;;2.35;;
14472;SDS011;7322;50.872;4.386;2023-07-30T02:45:39;7.78;;;2.55;;
14472;SDS011;7322;50.872;4.386;2023-07-30T02:48:06;5.65;;;2.13;;
14472;SDS011;7322;50.872;4.386;2023-07-30T02:50:39;7.72;;;2.63;;
14472;SDS011;7322;50.872;4.386;2023-07-30T02:53:19;5.10;;;2.20;;
14472;SDS011;7322;50.872;4.386;2023-07-30T02:55:48;7.75;;;2.55;;
14472;SDS011;7322;50.872;4.386;2023-07-30T02:58:17;7.95;;;2.60;;
14472;SDS011;7322;50.872;4.386;2023-07-30T03:00:50;8.85;;;2.60;;
14472;SDS011;7322;50.872;4.386;2023-07-30T03:03:23;7.15;;;2.58;;
14472;SDS011;7322;50.872;4.386;2023-07-30T03:13:36;6.90;;;2.50;;
14472;SDS011;7322;50.872;4.386;2023-07-30T03:16:05;7.22;;;2.30;;
14472;SDS011;7322;50.872;4.386;2023-07-30T03:18:38;5.47;;;2.55;;
14472;SDS011;7322;50.872;4.386;2023-07-30T03:26:34;6.88;;;2.33;;
14472;SDS011;7322;50.872;4.386;2023-07-30T03:29:06;8.88;;;2.60;;
14472;SDS011;7322;50.872;4.386;2023-07-30T03:31:39;7.40;;;2.53;;
14472;SDS011;7322;50.872;4.386;2023-07-30T03:39:41;8.05;;;2.67;;
14472;SDS011;7322;50.872;4.386;2023-07-30T03:42:09;6.03;;;2.25;;
14472;SDS011;7322;50.872;4.386;2023-07-30T03:47:06;8.50;;;2.85;;
14472;SDS011;7322;50.872;4.386;2023-07-30T03:49:39;5.35;;;2.22;;
14472;SDS011;7322;50.872;4.386;2023-07-30T03:52:08;7.13;;;2.45;;
14472;SDS011;7322;50.872;4.386;2023-07-30T03:54:37;8.93;;;2.78;;
14472;SDS011;7322;50.872;4.386;2023-07-30T03:57:11;8.10;;;2.30;;
14472;SDS011;7322;50.872;4.386;2023-07-30T03:59:39;8.23;;;2.70;;
14472;SDS011;7322;50.872;4.386;2023-07-30T04:02:06;8.10;;;2.50;;
14472;SDS011;7322;50.872;4.386;2023-07-30T04:04:39;8.43;;;2.63;;
14472;SDS011;7322;50.872;4.386;2023-07-30T04:07:09;7.25;;;2.55;;
14472;SDS011;7322;50.872;4.386;2023-07-30T04:09:43;7.70;;;2.65;;
14472;SDS011;7322;50.872;4.386;2023-07-30T04:12:20;7.55;;;2.72;;
14472;SDS011;7322;50.872;4.386;2023-07-30T04:14:50;8.18;;;2.75;;
14472;SDS011;7322;50.872;4.386;2023-07-30T04:17:22;9.30;;;3.15;;
14472;SDS011;7322;50.872;4.386;2023-07-30T04:20:00;10.40;;;2.70;;
14472;SDS011;7322;50.872;4.386;2023-07-30T04:25:07;6.65;;;2.70;;
14472;SDS011;7322;50.872;4.386;2023-07-30T04:30:26;5.90;;;2.10;;
14472;SDS011;7322;50.872;4.386;2023-07-30T04:38:30;7.38;;;2.90;;
14472;SDS011;7322;50.872;4.386;2023-07-30T04:40:59;9.57;;;2.78;;
14472;SDS011;7322;50.872;4.386;2023-07-30T04:43:39;8.38;;;2.78;;
14472;SDS011;7322;50.872;4.386;2023-07-30T04:46:13;9.43;;;2.75;;
14472;SDS011;7322;50.872;4.386;2023-07-30T04:48:40;8.68;;;2.55;;
14472;SDS011;7322;50.872;4.386;2023-07-30T04:51:08;7.10;;;2.55;;
14472;SDS011;7322;50.872;4.386;2023-07-30T04:56:13;8.23;;;2.35;;
14472;SDS011;7322;50.872;4.386;2023-07-30T04:58:42;7.95;;;2.30;;
14472;SDS011;7322;50.872;4.386;2023-07-30T05:01:09;8.27;;;3.10;;
14472;SDS011;7322;50.872;4.386;2023-07-30T05:03:38;7.30;;;3.08;;
14472;SDS011;7322;50.872;4.386;2023-07-30T05:08:36;11.02;;;3.03;;
14472;SDS011;7322;50.872;4.386;2023-07-30T05:16:12;6.88;;;2.35;;
14472;SDS011;7322;50.872;4.386;2023-07-30T05:18:39;7.88;;;2.63;;
14472;SDS011;7322;50.872;4.386;2023-07-30T05:21:13;7.65;;;2.47;;
14472;SDS011;7322;50.872;4.386;2023-07-30T05:29:16;8.90;;;2.65;;
14472;SDS011;7322;50.872;4.386;2023-07-30T05:31:50;7.10;;;3.03;;
14472;SDS011;7322;50.872;4.386;2023-07-30T05:34:18;7.60;;;2.67;;
14472;SDS011;7322;50.872;4.386;2023-07-30T05:36:52;7.63;;;2.70;;
14472;SDS011;7322;50.872;4.386;2023-07-30T05:39:33;8.85;;;2.63;;
14472;SDS011;7322;50.872;4.386;2023-07-30T05:42:01;6.72;;;2.45;;
14472;SDS011;7322;50.872;4.386;2023-07-30T05:50:09;7.95;;;2.90;;
14472;SDS011;7322;50.872;4.386;2023-07-30T05:55:21;7.15;;;2.92;;
14472;SDS011;7322;50.872;4.386;2023-07-30T05:57:48;12.80;;;3.33;;
14472;SDS011;7322;50.872;4.386;2023-07-30T06:00:16;7.45;;;2.75;;
14472;SDS011;7322;50.872;4.386;2023-07-30T06:05:52;8.88;;;2.70;;
14472;SDS011;7322;50.872;4.386;2023-07-30T06:11:02;7.85;;;2.75;;
14472;SDS011;7322;50.872;4.386;2023-07-30T06:13:29;10.13;;;3.55;;
14472;SDS011;7322;50.872;4.386;2023-07-30T06:15:57;9.95;;;3.08;;
14472;SDS011;7322;50.872;4.386;2023-07-30T06:18:25;7.72;;;2.90;;
14472;SDS011;7322;50.872;4.386;2023-07-30T06:23:39;9.07;;;3.08;;
14472;SDS011;7322;50.872;4.386;2023-07-30T06:26:06;9.57;;;2.75;;
14472;SDS011;7322;50.872;4.386;2023-07-30T06:28:33;10.45;;;3.08;;
14472;SDS011;7322;50.872;4.386;2023-07-30T06:31:02;9.73;;;3.20;;
14472;SDS011;7322;50.872;4.386;2023-07-30T06:33:29;6.95;;;2.65;;
14472;SDS011;7322;50.872;4.386;2023-07-30T06:38:31;9.52;;;3.13;;
14472;SDS011;7322;50.872;4.386;2023-07-30T06:40:58;8.88;;;2.97;;
14472;SDS011;7322;50.872;4.386;2023-07-30T06:43:39;8.90;;;3.13;;
14472;SDS011;7322;50.872;4.386;2023-07-30T06:46:08;8.95;;;2.80;;
14472;SDS011;7322;50.872;4.386;2023-07-30T06:48:35;8.80;;;3.10;;
14472;SDS011;7322;50.872;4.386;2023-07-30T06:51:09;10.77;;;3.03;;
14472;SDS011;7322;50.872;4.386;2023-07-30T06:53:47;10.07;;;2.85;;
14472;SDS011;7322;50.872;4.386;2023-07-30T06:56:14;9.77;;;3.00;;
14472;SDS011;7322;50.872;4.386;2023-07-30T06:58:48;9.02;;;2.67;;
14472;SDS011;7322;50.872;4.386;2023-07-30T07:01:22;12.45;;;3.50;;
14472;SDS011;7322;50.872;4.386;2023-07-30T07:03:59;8.82;;;3.00;;
14472;SDS011;7322;50.872;4.386;2023-07-30T07:06:37;11.48;;;3.15;;
14472;SDS011;7322;50.872;4.386;2023-07-30T07:09:06;8.48;;;2.72;;
14472;SDS011;7322;50.872;4.386;2023-07-30T07:16:53;7.35;;;2.47;;
14472;SDS011;7322;50.872;4.386;2023-07-30T07:19:35;10.15;;;3.00;;
14472;SDS011;7322;50.872;4.386;2023-07-30T07:22:09;8.73;;;2.78;;
14472;SDS011;7322;50.872;4.386;2023-07-30T07:24:40;9.60;;;3.08;;
14472;SDS011;7322;50.872;4.386;2023-07-30T07:27:09;8.13;;;2.67;;
14472;SDS011;7322;50.872;4.386;2023-07-30T07:35:12;7.68;;;2.85;;
14472;SDS011;7322;50.872;4.386;2023-07-30T07:37:40;8.32;;;2.58;;
14472;SDS011;7322;50.872;4.386;2023-07-30T07:40:09;6.13;;;2.45;;
14472;SDS011;7322;50.872;4.386;2023-07-30T07:42:37;8.75;;;2.83;;
14472;SDS011;7322;50.872;4.386;2023-07-30T07:50:18;11.45;;;2.88;;
14472;SDS011;7322;50.872;4.386;2023-07-30T07:55:32;7.57;;;2.80;;
14472;SDS011;7322;50.872;4.386;2023-07-30T07:57:59;8.57;;;3.20;;
14472;SDS011;7322;50.872;4.386;2023-07-30T08:00:40;8.45;;;3.00;;
14472;SDS011;7322;50.872;4.386;2023-07-30T08:05:39;8.90;;;2.85;;
14472;SDS011;7322;50.872;4.386;2023-07-30T08:08:06;9.68;;;3.03;;
14472;SDS011;7322;50.872;4.386;2023-07-30T08:10:41;10.25;;;2.67;;
14472;SDS011;7322;50.872;4.386;2023-07-30T08:13:13;9.57;;;2.80;;
14472;SDS011;7322;50.872;4.386;2023-07-30T08:15:47;7.93;;;2.90;;
14472;SDS011;7322;50.872;4.386;2023-07-30T08:18:26;6.95;;;2.50;;
14472;SDS011;7322;50.872;4.386;2023-07-30T08:21:02;8.55;;;3.00;;
14472;SDS011;7322;50.872;4.386;2023-07-30T08:23:40;7.05;;;2.75;;
14472;SDS011;7322;50.872;4.386;2023-07-30T08:26:09;11.43;;;3.38;;
14472;SDS011;7322;50.872;4.386;2023-07-30T08:28:36;9.98;;;2.78;;
14472;SDS011;7322;50.872;4.386;2023-07-30T08:31:09;8.20;;;2.90;;
14472;SDS011;7322;50.872;4.386;2023-07-30T08:33:36;10.35;;;2.92;;
14472;SDS011;7322;50.872;4.386;2023-07-30T08:36:03;8.32;;;2.53;;
14472;SDS011;7322;50.872;4.386;2023-07-30T08:38:33;8.55;;;2.85;;
14472;SDS011;7322;50.872;4.386;2023-07-30T08:41:10;8.82;;;2.67;;
14472;SDS011;7322;50.872;4.386;2023-07-30T08:43:48;7.45;;;2.50;;
14472;SDS011;7322;50.872;4.386;2023-07-30T08:46:19;8.82;;;2.60;;
14472;SDS011;7322;50.872;4.386;2023-07-30T08:48:47;10.13;;;3.08;;
14472;SDS011;7322;50.872;4.386;2023-07-30T08:51:16;8.93;;;2.40;;
14472;SDS011;7322;50.872;4.386;2023-07-30T08:53:46;10.43;;;3.10;;
14472;SDS011;7322;50.872;4.386;2023-07-30T09:02:43;7.28;;;2.63;;
14472;SDS011;7322;50.872;4.386;2023-07-30T09:05:13;9.73;;;2.53;;
14472;SDS011;7322;50.872;4.386;2023-07-30T09:07:48;8.90;;;2.92;;
14472;SDS011;7322;50.872;4.386;2023-07-30T09:13:22;8.32;;;3.03;;
14472;SDS011;7322;50.872;4.386;2023-07-30T09:15:50;8.98;;;3.08;;
14472;SDS011;7322;50.872;4.386;2023-07-30T09:21:09;6.80;;;2.78;;
14472;SDS011;7322;50.872;4.386;2023-07-30T09:23:40;8.35;;;2.75;;
14472;SDS011;7322;50.872;4.386;2023-07-30T09:26:13;7.03;;;2.53;;
14472;SDS011;7322;50.872;4.386;2023-07-30T09:28:44;8.48;;;2.60;;
14472;SDS011;7322;50.872;4.386;2023-07-30T09:31:13;7.95;;;3.00;;
14472;SDS011;7322;50.872;4.386;2023-07-30T09:33:45;9.82;;;2.92;;
14472;SDS011;7322;50.872;4.386;2023-07-30T09:36:14;8.10;;;2.55;;
14472;SDS011;7322;50.872;4.386;2023-07-30T09:42:01;6.35;;;2.63;;
14472;SDS011;7322;50.872;4.386;2023-07-30T09:44:29;9.43;;;2.92;;
14472;SDS011;7322;50.872;4.386;2023-07-30T09:49:44;6.95;;;2.65;;
14472;SDS011;7322;50.872;4.386;2023-07-30T09:55:02;7.43;;;2.92;;
14472;SDS011;7322;50.872;4.386;2023-07-30T09:57:34;10.60;;;3.00;;
14472;SDS011;7322;50.872;4.386;2023-07-30T10:00:13;6.72;;;2.60;;
14472;SDS011;7322;50.872;4.386;2023-07-30T10:02:49;8.57;;;3.10;;
14472;SDS011;7322;50.872;4.386;2023-07-30T10:13:57;6.93;;;2.80;;
14472;SDS011;7322;50.872;4.386;2023-07-30T10:21:44;5.78;;;2.65;;
14472;SDS011;7322;50.872;4.386;2023-07-30T10:24:17;6.28;;;2.60;;
14472;SDS011;7322;50.872;4.386;2023-07-30T10:32:40;7.30;;;2.22;;
14472;SDS011;7322;50.872;4.386;2023-07-30T10:35:07;7.90;;;2.65;;
14472;SDS011;7322;50.872;4.386;2023-07-30T10:37:45;7.65;;;2.40;;
14472;SDS011;7322;50.872;4.386;2023-07-30T10:40:16;6.15;;;2.60;;
14472;SDS011;7322;50.872;4.386;2023-07-30T10:42:44;11.45;;;2.45;;
14472;SDS011;7322;50.872;4.386;2023-07-30T10:45:13;6.65;;;2.42;;
14472;SDS011;7322;50.872;4.386;2023-07-30T10:47:41;5.53;;;2.20;;
14472;SDS011;7322;50.872;4.386;2023-07-30T10:50:10;5.90;;;2.10;;
14472;SDS011;7322;50.872;4.386;2023-07-30T10:52:39;7.05;;;2.33;;
14472;SDS011;7322;50.872;4.386;2023-07-30T10:55:09;7.93;;;2.85;;
14472;SDS011;7322;50.872;4.386;2023-07-30T11:08:59;5.38;;;2.40;;
14472;SDS011;7322;50.872;4.386;2023-07-30T11:11:37;6.43;;;2.38;;
14472;SDS011;7322;50.872;4.386;2023-07-30T11:14:17;6.50;;;2.28;;
14472;SDS011;7322;50.872;4.386;2023-07-30T11:16:48;5.25;;;1.90;;
14472;SDS011;7322;50.872;4.386;2023-07-30T11:19:17;5.70;;;2.08;;
14472;SDS011;7322;50.872;4.386;2023-07-30T11:21:48;6.55;;;2.05;;
14472;SDS011;7322;50.872;4.386;2023-07-30T11:24:17;5.97;;;2.20;;
14472;SDS011;7322;50.872;4.386;2023-07-30T11:26:57;5.85;;;2.30;;
14472;SDS011;7322;50.872;4.386;2023-07-30T11:29:27;5.55;;;1.90;;
14472;SDS011;7322;50.872;4.386;2023-07-30T11:32:01;5.57;;;2.20;;
14472;SDS011;7322;50.872;4.386;2023-07-30T11:34:43;7.10;;;2.25;;
14472;SDS011;7322;50.872;4.386;2023-07-30T11:40:09;5.65;;;1.88;;
14472;SDS011;7322;50.872;4.386;2023-07-30T11:42:40;5.85;;;1.88;;
14472;SDS011;7322;50.872;4.386;2023-07-30T11:45:18;3.80;;;1.83;;
14472;SDS011;7322;50.872;4.386;2023-07-30T11:47:46;5.03;;;1.50;;
14472;SDS011;7322;50.872;4.386;2023-07-30T11:50:13;5.50;;;2.00;;
14472;SDS011;7322;50.872;4.386;2023-07-30T11:52:50;3.75;;;1.70;;
14472;SDS011;7322;50.872;4.386;2023-07-30T11:55:19;5.55;;;1.83;;
14472;SDS011;7322;50.872;4.386;2023-07-30T11:57:48;5.88;;;1.85;;
14472;SDS011;7322;50.872;4.386;2023-07-30T12:00:15;7.15;;;1.92;;
14472;SDS011;7322;50.872;4.386;2023-07-30T12:02:49;7.10;;;1.85;;
14472;SDS011;7322;50.872;4.386;2023-07-30T12:05:17;5.07;;;1.83;;
14472;SDS011;7322;50.872;4.386;2023-07-30T12:07:46;5.45;;;1.83;;
14472;SDS011;7322;50.872;4.386;2023-07-30T12:10:15;3.63;;;1.80;;
14472;SDS011;7322;50.872;4.386;2023-07-30T12:12:44;5.05;;;1.65;;
14472;SDS011;7322;50.872;4.386;2023-07-30T12:15:26;5.28;;;1.70;;
14472;SDS011;7322;50.872;4.386;2023-07-30T12:17:57;5.18;;;1.73;;
14472;SDS011;7322;50.872;4.386;2023-07-30T12:20:26;4.07;;;1.73;;
14472;SDS011;7322;50.872;4.386;2023-07-30T12:22:54;4.68;;;1.60;;
14472;SDS011;7322;50.872;4.386;2023-07-30T12:30:58;3.33;;;1.60;;
14472;SDS011;7322;50.872;4.386;2023-07-30T12:33:34;3.63;;;1.58;;
14472;SDS011;7322;50.872;4.386;2023-07-30T12:36:01;3.20;;;1.70;;
14472;SDS011;7322;50.872;4.386;2023-07-30T12:38:32;4.95;;;2.00;;
14472;SDS011;7322;50.872;4.386;2023-07-30T12:41:01;3.08;;;1.60;;
14472;SDS011;7322;50.872;4.386;2023-07-30T12:43:28;6.13;;;1.95;;
14472;SDS011;7322;50.872;4.386;2023-07-30T12:45:55;3.50;;;1.63;;
14472;SDS011;7322;50.872;4.386;2023-07-30T12:51:25;3.35;;;1.65;;
14472;SDS011;7322;50.872;4.386;2023-07-30T12:53:54;5.28;;;1.85;;
14472;SDS011;7322;50.872;4.386;2023-07-30T12:56:23;4.40;;;1.88;;
14472;SDS011;7322;50.872;4.386;2023-07-30T12:58:51;3.95;;;1.60;;
14472;SDS011;7322;50.872;4.386;2023-07-30T13:01:22;4.63;;;2.10;;
14472;SDS011;7322;50.872;4.386;2023-07-30T13:03:52;4.28;;;2.10;;
14472;SDS011;7322;50.872;4.386;2023-07-30T13:06:21;5.32;;;1.92;;
14472;SDS011;7322;50.872;4.386;2023-07-30T13:08:48;5.15;;;1.95;;
14472;SDS011;7322;50.872;4.386;2023-07-30T13:11:15;4.88;;;2.13;;
14472;SDS011;7322;50.872;4.386;2023-07-30T13:13:56;4.38;;;1.70;;
14472;SDS011;7322;50.872;4.386;2023-07-30T13:16:24;4.70;;;1.67;;
14472;SDS011;7322;50.872;4.386;2023-07-30T13:18:52;3.72;;;1.80;;
14472;SDS011;7322;50.872;4.386;2023-07-30T13:21:22;4.47;;;1.60;;
14472;SDS011;7322;50.872;4.386;2023-07-30T13:29:41;4.68;;;1.67;;
14472;SDS011;7322;50.872;4.386;2023-07-30T13:34:51;3.58;;;1.73;;
14472;SDS011;7322;50.872;4.386;2023-07-30T13:37:27;6.28;;;2.10;;
14472;SDS011;7322;50.872;4.386;2023-07-30T13:42:40;3.50;;;1.80;;
14472;SDS011;7322;50.872;4.386;2023-07-30T13:48:06;4.22;;;1.77;;
14472;SDS011;7322;50.872;4.386;2023-07-30T13:59:06;5.88;;;1.90;;
14472;SDS011;7322;50.872;4.386;2023-07-30T14:01:40;5.93;;;2.30;;
14472;SDS011;7322;50.872;4.386;2023-07-30T14:04:18;7.63;;;2.10;;
14472;SDS011;7322;50.872;4.386;2023-07-30T14:06:48;4.03;;;2.30;;
14472;SDS011;7322;50.872;4.386;2023-07-30T14:11:56;3.50;;;2.10;;
14472;SDS011;7322;50.872;4.386;2023-07-30T14:14:23;5.88;;;2.03;;
14472;SDS011;7322;50.872;4.386;2023-07-30T14:16:52;7.07;;;2.28;;
14472;SDS011;7322;50.872;4.386;2023-07-30T14:19:20;5.80;;;2.30;;
14472;SDS011;7322;50.872;4.386;2023-07-30T14:21:55;4.63;;;2.22;;
14472;SDS011;7322;50.872;4.386;2023-07-30T14:24:24;5.25;;;2.35;;
14472;SDS011;7322;50.872;4.386;2023-07-30T14:26:54;6.03;;;2.20;;
14472;SDS011;7322;50.872;4.386;2023-07-30T14:29:21;5.13;;;2.30;;
14472;SDS011;7322;50.872;4.386;2023-07-30T14:31:49;7.53;;;2.30;;
14472;SDS011;7322;50.872;4.386;2023-07-30T14:34:17;5.35;;;2.33;;
14472;SDS011;7322;50.872;4.386;2023-07-30T14:36:54;6.85;;;2.35;;
14472;SDS011;7322;50.872;4.386;2023-07-30T14:39:21;5.55;;;2.70;;
14472;SDS011;7322;50.872;4.386;2023-07-30T14:41:57;6.72;;;2.63;;
14472;SDS011;7322;50.872;4.386;2023-07-30T14:44:34;5.15;;;2.15;;
14472;SDS011;7322;50.872;4.386;2023-07-30T14:47:02;4.78;;;2.22;;
14472;SDS011;7322;50.872;4.386;2023-07-30T14:49:38;6.85;;;2.22;;
14472;SDS011;7322;50.872;4.386;2023-07-30T14:52:15;7.55;;;2.58;;
14472;SDS011;7322;50.872;4.386;2023-07-30T14:54:43;5.18;;;2.90;;
14472;SDS011;7322;50.872;4.386;2023-07-30T14:57:10;6.72;;;2.63;;
14472;SDS011;7322;50.872;4.386;2023-07-30T14:59:40;5.55;;;2.45;;
14472;SDS011;7322;50.872;4.386;2023-07-30T15:04:39;10.25;;;2.90;;
14472;SDS011;7322;50.872;4.386;2023-07-30T15:07:07;9.52;;;2.83;;
14472;SDS011;7322;50.872;4.386;2023-07-30T15:09:37;6.47;;;2.83;;
14472;SDS011;7322;50.872;4.386;2023-07-30T15:12:05;6.03;;;3.05;;
14472;SDS011;7322;50.872;4.386;2023-07-30T15:14:34;6.00;;;2.80;;
14472;SDS011;7322;50.872;4.386;2023-07-30T15:17:09;9.85;;;3.28;;
14472;SDS011;7322;50.872;4.386;2023-07-30T15:22:09;6.20;;;3.30;;
14472;SDS011;7322;50.872;4.386;2023-07-30T15:24:46;7.68;;;3.03;;
14472;SDS011;7322;50.872;4.386;2023-07-30T15:27:23;7.18;;;3.05;;
14472;SDS011;7322;50.872;4.386;2023-07-30T15:29:52;6.15;;;2.92;;
14472;SDS011;7322;50.872;4.386;2023-07-30T15:32:21;8.18;;;2.92;;
14472;SDS011;7322;50.872;4.386;2023-07-30T15:34:56;6.47;;;2.85;;
14472;SDS011;7322;50.872;4.386;2023-07-30T15:37:30;7.97;;;3.08;;
14472;SDS011;7322;50.872;4.386;2023-07-30T15:40:13;6.88;;;2.88;;
14472;SDS011;7322;50.872;4.386;2023-07-30T15:42:41;4.88;;;2.65;;
14472;SDS011;7322;50.872;4.386;2023-07-30T15:45:10;8.40;;;2.70;;
14472;SDS011;7322;50.872;4.386;2023-07-30T15:47:47;8.80;;;3.25;;
14472;SDS011;7322;50.872;4.386;2023-07-30T15:50:18;6.47;;;2.70;;
14472;SDS011;7322;50.872;4.386;2023-07-30T15:52:55;5.35;;;2.90;;
14472;SDS011;7322;50.872;4.386;2023-07-30T15:55:28;4.90;;;2.90;;
14472;SDS011;7322;50.872;4.386;2023-07-30T15:57:57;6.35;;;3.20;;
14472;SDS011;7322;50.872;4.386;2023-07-30T16:00:30;7.78;;;3.05;;
14472;SDS011;7322;50.872;4.386;2023-07-30T16:03:04;8.82;;;3.15;;
14472;SDS011;7322;50.872;4.386;2023-07-30T16:08:22;7.25;;;2.90;;
14472;SDS011;7322;50.872;4.386;2023-07-30T16:11:01;5.75;;;2.80;;
14472;SDS011;7322;50.872;4.386;2023-07-30T16:16:14;7.60;;;2.97;;
14472;SDS011;7322;50.872;4.386;2023-07-30T16:24:53;6.10;;;3.20;;
14472;SDS011;7322;50.872;4.386;2023-07-30T16:27:24;4.80;;;2.75;;
14472;SDS011;7322;50.872;4.386;2023-07-30T16:29:51;5.78;;;2.53;;
14472;SDS011;7322;50.872;4.386;2023-07-30T16:32:24;6.85;;;3.00;;
14472;SDS011;7322;50.872;4.386;2023-07-30T16:34:51;5.70;;;2.63;;
14472;SDS011;7322;50.872;4.386;2023-07-30T16:37:20;5.72;;;2.65;;
14472;SDS011;7322;50.872;4.386;2023-07-30T16:39:50;6.40;;;2.95;;
14472;SDS011;7322;50.872;4.386;2023-07-30T16:42:20;5.60;;;2.72;;
14472;SDS011;7322;50.872;4.386;2023-07-30T16:45:03;6.95;;;2.70;;
14472;SDS011;7322;50.872;4.386;2023-07-30T16:47:37;6.90;;;2.97;;
14472;SDS011;7322;50.872;4.386;2023-07-30T16:50:04;5.43;;;2.70;;
14472;SDS011;7322;50.872;4.386;2023-07-30T16:52:39;5.40;;;2.90;;
14472;SDS011;7322;50.872;4.386;2023-07-30T16:55:14;6.25;;;2.88;;
14472;SDS011;7322;50.872;4.386;2023-07-30T16:57:52;5.00;;;2.72;;
14472;SDS011;7322;50.872;4.386;2023-07-30T17:03:08;5.68;;;2.90;;
14472;SDS011;7322;50.872;4.386;2023-07-30T17:05:35;4.47;;;2.67;;
14472;SDS011;7322;50.872;4.386;2023-07-30T17:11:07;6.50;;;3.30;;
14472;SDS011;7322;50.872;4.386;2023-07-30T17:13:34;6.25;;;2.80;;
14472;SDS011;7322;50.872;4.386;2023-07-30T17:16:10;4.72;;;2.92;;
14472;SDS011;7322;50.872;4.386;2023-07-30T17:18:37;7.97;;;2.83;;
14472;SDS011;7322;50.872;4.386;2023-07-30T17:24:04;5.93;;;2.88;;
14472;SDS011;7322;50.872;4.386;2023-07-30T17:29:10;5.53;;;2.70;;
14472;SDS011;7322;50.872;4.386;2023-07-30T17:31:39;6.57;;;2.72;;
14472;SDS011;7322;50.872;4.386;2023-07-30T17:34:08;3.70;;;2.60;;
14472;SDS011;7322;50.872;4.386;2023-07-30T17:39:21;16.10;;;2.97;;
14472;SDS011;7322;50.872;4.386;2023-07-30T17:41:49;3.55;;;2.47;;
14472;SDS011;7322;50.872;4.386;2023-07-30T17:46:58;5.47;;;2.97;;
14472;SDS011;7322;50.872;4.386;2023-07-30T17:49:27;6.47;;;2.95;;
14472;SDS011;7322;50.872;4.386;2023-07-30T17:51:55;4.88;;;2.85;;
14472;SDS011;7322;50.872;4.386;2023-07-30T17:54:23;5.32;;;3.00;;
14472;SDS011;7322;50.872;4.386;2023-07-30T17:57:03;8.75;;;3.10;;
14472;SDS011;7322;50.872;4.386;2023-07-30T17:59:30;7.05;;;3.20;;
14472;SDS011;7322;50.872;4.386;2023-07-30T18:02:11;5.95;;;3.30;;
14472;SDS011;7322;50.872;4.386;2023-07-30T18:04:40;6.38;;;3.28;;
14472;SDS011;7322;50.872;4.386;2023-07-30T18:07:07;6.32;;;3.15;;
14472;SDS011;7322;50.872;4.386;2023-07-30T18:09:34;6.80;;;3.35;;
14472;SDS011;7322;50.872;4.386;2023-07-30T18:12:02;5.63;;;3.60;;
14472;SDS011;7322;50.872;4.386;2023-07-30T18:14:30;7.25;;;3.55;;
14472;SDS011;7322;50.872;4.386;2023-07-30T18:17:07;5.72;;;3.33;;
14472;SDS011;7322;50.872;4.386;2023-07-30T18:19:39;6.47;;;3.40;;
14472;SDS011;7322;50.872;4.386;2023-07-30T18:24:37;6.95;;;3.30;;
14472;SDS011;7322;50.872;4.386;2023-07-30T18:27:20;5.97;;;3.75;;
14472;SDS011;7322;50.872;4.386;2023-07-30T18:29:48;4.57;;;2.97;;
14472;SDS011;7322;50.872;4.386;2023-07-30T18:32:22;7.97;;;3.42;;
14472;SDS011;7322;50.872;4.386;2023-07-30T18:35:04;5.40;;;3.35;;
14472;SDS011;7322;50.872;4.386;2023-07-30T18:37:36;7.20;;;3.72;;
14472;SDS011;7322;50.872;4.386;2023-07-30T18:40:05;7.72;;;3.50;;
14472;SDS011;7322;50.872;4.386;2023-07-30T18:45:46;4.90;;;3.47;;
14472;SDS011;7322;50.872;4.386;2023-07-30T18:48:13;5.57;;;3.08;;
14472;SDS011;7322;50.872;4.386;2023-07-30T18:50:58;6.20;;;3.63;;
14472;SDS011;7322;50.872;4.386;2023-07-30T18:53:25;6.55;;;3.70;;
14472;SDS011;7322;50.872;4.386;2023-07-30T18:55:53;6.20;;;3.38;;
14472;SDS011;7322;50.872;4.386;2023-07-30T18:58:21;6.50;;;3.60;;
14472;SDS011;7322;50.872;4.386;2023-07-30T19:01:02;5.18;;;3.30;;
14472;SDS011;7322;50.872;4.386;2023-07-30T19:03:36;9.02;;;3.55;;
14472;SDS011;7322;50.872;4.386;2023-07-30T19:06:04;5.50;;;3.35;;
14472;SDS011;7322;50.872;4.386;2023-07-30T19:08:39;7.18;;;3.42;;
14472;SDS011;7322;50.872;4.386;2023-07-30T19:11:07;8.45;;;4.20;;
14472;SDS011;7322;50.872;4.386;2023-07-30T19:13:46;7.13;;;3.53;;
14472;SDS011;7322;50.872;4.386;2023-07-30T19:18:46;6.03;;;3.92;;
14472;SDS011;7322;50.872;4.386;2023-07-30T19:21:21;6.85;;;3.70;;